Terminal Aerodrome Forecast
Issued by NWS Twin Cities, MN

Home | Current Version | Previous Version | Text Only | Print | Product List | Glossary Off
Versions: 1 2 3 4 5 6 7 8 9 10 11 12 13 14 15 16 17 18 19 20 21 22 23 24 25 26 27 28

000
FTUS43 KMPX 270245 AAB
TAFMSP
TAF AMD
KMSP 270245Z 2703/2806 27003KT P6SM VCSH FEW012 OVC110
     FM271000 26005KT 5SM BR SCT090
     FM271200 27008KT P6SM SCT070=

USA.gov is the U.S. government's official web portal to all federal, state and local government web resources and services.